sensor_id;sensor_type;location;lat;lon;timestamp;P1;durP1;ratioP1;P2;durP2;ratioP2
72325;SDS011;60278;47.980;18.780;2023-12-22T00:00:44;17.63;;;9.67;;
72325;SDS011;60278;47.980;18.780;2023-12-22T00:03:49;15.17;;;9.00;;
72325;SDS011;60278;47.980;18.780;2023-12-22T00:06:51;13.90;;;8.48;;
72325;SDS011;60278;47.980;18.780;2023-12-22T00:09:54;13.68;;;8.15;;
72325;SDS011;60278;47.980;18.780;2023-12-22T00:12:56;13.85;;;7.93;;
72325;SDS011;60278;47.980;18.780;2023-12-22T00:15:58;14.60;;;8.47;;
72325;SDS011;60278;47.980;18.780;2023-12-22T00:19:00;13.30;;;8.90;;
72325;SDS011;60278;47.980;18.780;2023-12-22T00:22:02;13.23;;;8.63;;
72325;SDS011;60278;47.980;18.780;2023-12-22T00:25:05;12.02;;;7.57;;
72325;SDS011;60278;47.980;18.780;2023-12-22T00:28:09;13.38;;;7.80;;
72325;SDS011;60278;47.980;18.780;2023-12-22T00:31:11;11.40;;;7.00;;
72325;SDS011;60278;47.980;18.780;2023-12-22T00:34:16;11.70;;;7.27;;
72325;SDS011;60278;47.980;18.780;2023-12-22T00:37:18;11.07;;;6.57;;
72325;SDS011;60278;47.980;18.780;2023-12-22T00:40:20;11.45;;;6.68;;
72325;SDS011;60278;47.980;18.780;2023-12-22T00:43:22;10.23;;;5.78;;
72325;SDS011;60278;47.980;18.780;2023-12-22T00:46:25;9.97;;;5.77;;
72325;SDS011;60278;47.980;18.780;2023-12-22T00:49:27;9.60;;;5.57;;
72325;SDS011;60278;47.980;18.780;2023-12-22T00:52:29;12.15;;;5.90;;
72325;SDS011;60278;47.980;18.780;2023-12-22T00:55:31;15.20;;;5.72;;
72325;SDS011;60278;47.980;18.780;2023-12-22T00:58:33;8.55;;;4.72;;
72325;SDS011;60278;47.980;18.780;2023-12-22T01:01:35;9.60;;;4.97;;
72325;SDS011;60278;47.980;18.780;2023-12-22T01:04:37;6.63;;;4.03;;
72325;SDS011;60278;47.980;18.780;2023-12-22T01:07:39;7.00;;;3.78;;
72325;SDS011;60278;47.980;18.780;2023-12-22T01:10:42;6.65;;;3.20;;
72325;SDS011;60278;47.980;18.780;2023-12-22T01:13:44;7.82;;;3.20;;
72325;SDS011;60278;47.980;18.780;2023-12-22T01:16:46;4.97;;;3.00;;
72325;SDS011;60278;47.980;18.780;2023-12-22T01:19:48;6.40;;;3.00;;
72325;SDS011;60278;47.980;18.780;2023-12-22T01:22:50;5.00;;;2.83;;
72325;SDS011;60278;47.980;18.780;2023-12-22T01:25:52;4.57;;;2.75;;
72325;SDS011;60278;47.980;18.780;2023-12-22T01:28:54;5.78;;;3.08;;
72325;SDS011;60278;47.980;18.780;2023-12-22T01:31:57;4.80;;;2.63;;
72325;SDS011;60278;47.980;18.780;2023-12-22T01:34:59;3.83;;;1.87;;
72325;SDS011;60278;47.980;18.780;2023-12-22T01:38:05;4.60;;;2.10;;
72325;SDS011;60278;47.980;18.780;2023-12-22T01:41:07;3.28;;;1.70;;
72325;SDS011;60278;47.980;18.780;2023-12-22T01:44:10;3.05;;;1.60;;
72325;SDS011;60278;47.980;18.780;2023-12-22T01:47:12;4.40;;;1.80;;
72325;SDS011;60278;47.980;18.780;2023-12-22T01:50:14;3.50;;;2.00;;
72325;SDS011;60278;47.980;18.780;2023-12-22T01:53:17;3.90;;;1.90;;
72325;SDS011;60278;47.980;18.780;2023-12-22T01:56:21;4.00;;;2.65;;
72325;SDS011;60278;47.980;18.780;2023-12-22T01:59:23;5.50;;;2.90;;
72325;SDS011;60278;47.980;18.780;2023-12-22T02:02:25;5.40;;;2.80;;
72325;SDS011;60278;47.980;18.780;2023-12-22T02:05:27;6.20;;;2.70;;
72325;SDS011;60278;47.980;18.780;2023-12-22T02:08:31;4.60;;;2.20;;
72325;SDS011;60278;47.980;18.780;2023-12-22T02:11:34;3.38;;;1.50;;
72325;SDS011;60278;47.980;18.780;2023-12-22T02:14:36;2.80;;;1.55;;
72325;SDS011;60278;47.980;18.780;2023-12-22T02:20:44;2.07;;;1.33;;
72325;SDS011;60278;47.980;18.780;2023-12-22T02:23:49;4.32;;;1.52;;
72325;SDS011;60278;47.980;18.780;2023-12-22T02:26:51;3.03;;;1.20;;
72325;SDS011;60278;47.980;18.780;2023-12-22T02:33:15;2.00;;;1.10;;
72325;SDS011;60278;47.980;18.780;2023-12-22T02:36:18;1.97;;;1.07;;
72325;SDS011;60278;47.980;18.780;2023-12-22T02:39:22;2.80;;;1.20;;
72325;SDS011;60278;47.980;18.780;2023-12-22T02:42:24;2.35;;;1.13;;
72325;SDS011;60278;47.980;18.780;2023-12-22T02:45:32;2.10;;;1.20;;
72325;SDS011;60278;47.980;18.780;2023-12-22T02:48:34;1.70;;;1.00;;
72325;SDS011;60278;47.980;18.780;2023-12-22T02:51:36;2.70;;;1.40;;
72325;SDS011;60278;47.980;18.780;2023-12-22T02:54:38;1.75;;;1.10;;
72325;SDS011;60278;47.980;18.780;2023-12-22T02:57:41;2.08;;;1.20;;
72325;SDS011;60278;47.980;18.780;2023-12-22T03:00:43;2.35;;;1.30;;
72325;SDS011;60278;47.980;18.780;2023-12-22T03:03:46;2.50;;;1.43;;
72325;SDS011;60278;47.980;18.780;2023-12-22T03:06:48;2.40;;;1.10;;
72325;SDS011;60278;47.980;18.780;2023-12-22T03:09:50;2.10;;;1.30;;
72325;SDS011;60278;47.980;18.780;2023-12-22T03:12:52;2.65;;;1.40;;
72325;SDS011;60278;47.980;18.780;2023-12-22T03:15:54;2.20;;;1.30;;
72325;SDS011;60278;47.980;18.780;2023-12-22T03:18:56;2.10;;;1.20;;
72325;SDS011;60278;47.980;18.780;2023-12-22T03:21:58;1.97;;;1.20;;
72325;SDS011;60278;47.980;18.780;2023-12-22T03:25:01;2.05;;;1.20;;
72325;SDS011;60278;47.980;18.780;2023-12-22T03:28:03;2.95;;;1.20;;
72325;SDS011;60278;47.980;18.780;2023-12-22T03:31:05;2.28;;;1.30;;
72325;SDS011;60278;47.980;18.780;2023-12-22T03:34:08;2.60;;;1.70;;
72325;SDS011;60278;47.980;18.780;2023-12-22T03:37:10;2.87;;;1.30;;
72325;SDS011;60278;47.980;18.780;2023-12-22T03:40:12;2.60;;;1.30;;
72325;SDS011;60278;47.980;18.780;2023-12-22T03:43:14;3.05;;;1.48;;
72325;SDS011;60278;47.980;18.780;2023-12-22T03:46:17;3.38;;;1.40;;
72325;SDS011;60278;47.980;18.780;2023-12-22T03:49:20;3.80;;;1.50;;
72325;SDS011;60278;47.980;18.780;2023-12-22T03:52:22;4.63;;;1.57;;
72325;SDS011;60278;47.980;18.780;2023-12-22T03:55:24;4.00;;;1.65;;
72325;SDS011;60278;47.980;18.780;2023-12-22T03:58:26;3.20;;;1.60;;
72325;SDS011;60278;47.980;18.780;2023-12-22T04:01:28;3.95;;;1.60;;
72325;SDS011;60278;47.980;18.780;2023-12-22T04:04:31;9.33;;;2.03;;
72325;SDS011;60278;47.980;18.780;2023-12-22T04:07:33;3.93;;;1.60;;
72325;SDS011;60278;47.980;18.780;2023-12-22T04:10:37;5.53;;;1.70;;
72325;SDS011;60278;47.980;18.780;2023-12-22T04:13:39;4.80;;;1.50;;
72325;SDS011;60278;47.980;18.780;2023-12-22T04:16:41;5.32;;;1.70;;
72325;SDS011;60278;47.980;18.780;2023-12-22T04:19:43;2.93;;;1.43;;
72325;SDS011;60278;47.980;18.780;2023-12-22T04:22:45;4.40;;;1.80;;
72325;SDS011;60278;47.980;18.780;2023-12-22T04:25:48;5.53;;;1.90;;
72325;SDS011;60278;47.980;18.780;2023-12-22T04:28:50;3.08;;;1.10;;
72325;SDS011;60278;47.980;18.780;2023-12-22T04:31:52;3.08;;;1.60;;
72325;SDS011;60278;47.980;18.780;2023-12-22T04:34:54;3.03;;;1.27;;
72325;SDS011;60278;47.980;18.780;2023-12-22T04:37:57;4.63;;;1.80;;
72325;SDS011;60278;47.980;18.780;2023-12-22T04:40:59;3.63;;;1.70;;
72325;SDS011;60278;47.980;18.780;2023-12-22T04:44:01;3.97;;;1.55;;
72325;SDS011;60278;47.980;18.780;2023-12-22T04:47:06;4.95;;;1.77;;
72325;SDS011;60278;47.980;18.780;2023-12-22T04:50:08;4.70;;;1.67;;
72325;SDS011;60278;47.980;18.780;2023-12-22T04:53:10;3.90;;;1.90;;
72325;SDS011;60278;47.980;18.780;2023-12-22T04:56:12;2.92;;;1.65;;
72325;SDS011;60278;47.980;18.780;2023-12-22T04:59:15;4.20;;;1.23;;
72325;SDS011;60278;47.980;18.780;2023-12-22T05:02:17;5.30;;;1.60;;
72325;SDS011;60278;47.980;18.780;2023-12-22T05:05:19;7.43;;;2.10;;
72325;SDS011;60278;47.980;18.780;2023-12-22T05:08:21;4.33;;;1.70;;
72325;SDS011;60278;47.980;18.780;2023-12-22T05:11:23;4.45;;;2.33;;
72325;SDS011;60278;47.980;18.780;2023-12-22T05:14:25;6.47;;;2.30;;
72325;SDS011;60278;47.980;18.780;2023-12-22T05:17:27;3.22;;;1.70;;
72325;SDS011;60278;47.980;18.780;2023-12-22T05:20:29;4.40;;;1.70;;
72325;SDS011;60278;47.980;18.780;2023-12-22T05:23:31;5.17;;;2.13;;
72325;SDS011;60278;47.980;18.780;2023-12-22T05:26:34;6.55;;;1.70;;
72325;SDS011;60278;47.980;18.780;2023-12-22T05:29:36;7.43;;;2.05;;
72325;SDS011;60278;47.980;18.780;2023-12-22T05:32:38;5.80;;;1.67;;
72325;SDS011;60278;47.980;18.780;2023-12-22T05:35:41;6.17;;;1.90;;
72325;SDS011;60278;47.980;18.780;2023-12-22T05:38:43;5.33;;;2.10;;
72325;SDS011;60278;47.980;18.780;2023-12-22T05:41:45;4.18;;;1.50;;
72325;SDS011;60278;47.980;18.780;2023-12-22T05:44:47;6.53;;;1.60;;
72325;SDS011;60278;47.980;18.780;2023-12-22T05:47:51;5.90;;;1.73;;
72325;SDS011;60278;47.980;18.780;2023-12-22T05:50:57;7.10;;;2.70;;
72325;SDS011;60278;47.980;18.780;2023-12-22T05:53:59;4.60;;;1.93;;
72325;SDS011;60278;47.980;18.780;2023-12-22T05:57:01;5.80;;;1.90;;
72325;SDS011;60278;47.980;18.780;2023-12-22T06:00:06;8.35;;;2.17;;
72325;SDS011;60278;47.980;18.780;2023-12-22T06:03:11;5.55;;;2.10;;
72325;SDS011;60278;47.980;18.780;2023-12-22T06:06:13;5.27;;;1.83;;
72325;SDS011;60278;47.980;18.780;2023-12-22T06:09:15;6.23;;;2.13;;
72325;SDS011;60278;47.980;18.780;2023-12-22T06:12:19;7.03;;;2.00;;
72325;SDS011;60278;47.980;18.780;2023-12-22T06:15:21;5.95;;;2.17;;
72325;SDS011;60278;47.980;18.780;2023-12-22T06:18:23;6.53;;;1.77;;
72325;SDS011;60278;47.980;18.780;2023-12-22T06:21:25;5.20;;;2.10;;
72325;SDS011;60278;47.980;18.780;2023-12-22T06:24:27;4.30;;;1.70;;
72325;SDS011;60278;47.980;18.780;2023-12-22T06:27:29;6.60;;;2.63;;
72325;SDS011;60278;47.980;18.780;2023-12-22T06:30:31;6.63;;;2.08;;
72325;SDS011;60278;47.980;18.780;2023-12-22T06:33:33;4.63;;;2.05;;
72325;SDS011;60278;47.980;18.780;2023-12-22T06:36:35;10.70;;;2.77;;
72325;SDS011;60278;47.980;18.780;2023-12-22T06:39:38;4.30;;;1.87;;
72325;SDS011;60278;47.980;18.780;2023-12-22T06:42:40;13.75;;;2.03;;
72325;SDS011;60278;47.980;18.780;2023-12-22T06:45:42;6.47;;;1.80;;
72325;SDS011;60278;47.980;18.780;2023-12-22T06:48:44;7.15;;;2.05;;
72325;SDS011;60278;47.980;18.780;2023-12-22T06:51:46;8.33;;;2.30;;
72325;SDS011;60278;47.980;18.780;2023-12-22T06:54:48;11.30;;;2.20;;
72325;SDS011;60278;47.980;18.780;2023-12-22T06:57:50;6.45;;;2.08;;
72325;SDS011;60278;47.980;18.780;2023-12-22T07:00:53;6.60;;;1.90;;
72325;SDS011;60278;47.980;18.780;2023-12-22T07:03:55;6.53;;;2.05;;
72325;SDS011;60278;47.980;18.780;2023-12-22T07:06:57;7.77;;;2.17;;
72325;SDS011;60278;47.980;18.780;2023-12-22T07:10:00;8.87;;;1.93;;
72325;SDS011;60278;47.980;18.780;2023-12-22T07:13:02;5.63;;;1.85;;
72325;SDS011;60278;47.980;18.780;2023-12-22T07:16:04;5.43;;;2.05;;
72325;SDS011;60278;47.980;18.780;2023-12-22T07:19:07;9.50;;;2.28;;
72325;SDS011;60278;47.980;18.780;2023-12-22T07:22:09;7.30;;;2.30;;
72325;SDS011;60278;47.980;18.780;2023-12-22T07:25:11;6.23;;;1.97;;
72325;SDS011;60278;47.980;18.780;2023-12-22T07:28:15;7.85;;;2.35;;
72325;SDS011;60278;47.980;18.780;2023-12-22T07:31:18;6.85;;;2.03;;
72325;SDS011;60278;47.980;18.780;2023-12-22T07:34:20;9.68;;;2.10;;
72325;SDS011;60278;47.980;18.780;2023-12-22T07:37:24;7.37;;;2.13;;
72325;SDS011;60278;47.980;18.780;2023-12-22T07:40:26;7.83;;;2.07;;
72325;SDS011;60278;47.980;18.780;2023-12-22T07:43:28;6.55;;;1.88;;
72325;SDS011;60278;47.980;18.780;2023-12-22T07:46:31;7.82;;;2.10;;
72325;SDS011;60278;47.980;18.780;2023-12-22T07:49:33;10.15;;;2.00;;
72325;SDS011;60278;47.980;18.780;2023-12-22T07:52:36;9.73;;;2.00;;
72325;SDS011;60278;47.980;18.780;2023-12-22T07:55:43;4.07;;;1.90;;
72325;SDS011;60278;47.980;18.780;2023-12-22T07:58:45;7.05;;;1.92;;
72325;SDS011;60278;47.980;18.780;2023-12-22T08:01:47;7.55;;;2.53;;
72325;SDS011;60278;47.980;18.780;2023-12-22T08:04:49;5.97;;;1.60;;
72325;SDS011;60278;47.980;18.780;2023-12-22T08:07:52;7.27;;;1.80;;
72325;SDS011;60278;47.980;18.780;2023-12-22T08:10:54;8.87;;;1.80;;
72325;SDS011;60278;47.980;18.780;2023-12-22T08:13:57;5.55;;;1.77;;
72325;SDS011;60278;47.980;18.780;2023-12-22T08:16:59;8.40;;;2.42;;
72325;SDS011;60278;47.980;18.780;2023-12-22T08:20:02;8.07;;;2.25;;
72325;SDS011;60278;47.980;18.780;2023-12-22T08:23:13;5.57;;;2.50;;
72325;SDS011;60278;47.980;18.780;2023-12-22T08:26:16;7.10;;;3.03;;
72325;SDS011;60278;47.980;18.780;2023-12-22T08:29:21;7.25;;;2.53;;
72325;SDS011;60278;47.980;18.780;2023-12-22T08:32:23;7.28;;;2.10;;
72325;SDS011;60278;47.980;18.780;2023-12-22T08:35:25;8.50;;;2.67;;
72325;SDS011;60278;47.980;18.780;2023-12-22T08:38:27;8.67;;;2.50;;
72325;SDS011;60278;47.980;18.780;2023-12-22T08:41:29;8.37;;;2.80;;
72325;SDS011;60278;47.980;18.780;2023-12-22T08:44:38;7.75;;;2.60;;
72325;SDS011;60278;47.980;18.780;2023-12-22T08:47:40;10.18;;;2.70;;
72325;SDS011;60278;47.980;18.780;2023-12-22T08:50:42;9.35;;;2.60;;
72325;SDS011;60278;47.980;18.780;2023-12-22T08:53:44;8.43;;;3.00;;
72325;SDS011;60278;47.980;18.780;2023-12-22T08:56:46;8.63;;;2.50;;
72325;SDS011;60278;47.980;18.780;2023-12-22T08:59:48;8.63;;;2.63;;
72325;SDS011;60278;47.980;18.780;2023-12-22T09:02:50;10.10;;;2.70;;
72325;SDS011;60278;47.980;18.780;2023-12-22T09:05:52;7.18;;;2.65;;
72325;SDS011;60278;47.980;18.780;2023-12-22T09:08:54;7.07;;;2.27;;
72325;SDS011;60278;47.980;18.780;2023-12-22T09:11:56;6.00;;;2.20;;
72325;SDS011;60278;47.980;18.780;2023-12-22T09:14:59;7.57;;;2.20;;
72325;SDS011;60278;47.980;18.780;2023-12-22T09:18:01;5.25;;;2.25;;
72325;SDS011;60278;47.980;18.780;2023-12-22T09:21:04;6.60;;;2.53;;
72325;SDS011;60278;47.980;18.780;2023-12-22T09:24:06;7.03;;;2.30;;
72325;SDS011;60278;47.980;18.780;2023-12-22T09:27:08;7.00;;;2.30;;
72325;SDS011;60278;47.980;18.780;2023-12-22T09:30:11;7.22;;;2.30;;
72325;SDS011;60278;47.980;18.780;2023-12-22T09:33:13;6.38;;;2.20;;
72325;SDS011;60278;47.980;18.780;2023-12-22T09:36:16;5.28;;;2.00;;
72325;SDS011;60278;47.980;18.780;2023-12-22T09:39:18;4.43;;;1.80;;
72325;SDS011;60278;47.980;18.780;2023-12-22T09:42:21;8.13;;;2.10;;
72325;SDS011;60278;47.980;18.780;2023-12-22T09:45:23;6.03;;;1.77;;
72325;SDS011;60278;47.980;18.780;2023-12-22T09:48:25;6.25;;;1.60;;
72325;SDS011;60278;47.980;18.780;2023-12-22T09:51:31;4.05;;;1.67;;
72325;SDS011;60278;47.980;18.780;2023-12-22T09:54:35;4.23;;;1.60;;
72325;SDS011;60278;47.980;18.780;2023-12-22T09:57:38;4.13;;;2.03;;
72325;SDS011;60278;47.980;18.780;2023-12-22T10:00:41;5.90;;;1.67;;
72325;SDS011;60278;47.980;18.780;2023-12-22T10:03:43;5.95;;;1.70;;
72325;SDS011;60278;47.980;18.780;2023-12-22T10:06:49;5.90;;;2.53;;
72325;SDS011;60278;47.980;18.780;2023-12-22T10:09:52;4.80;;;2.10;;
72325;SDS011;60278;47.980;18.780;2023-12-22T10:12:56;8.97;;;2.67;;
72325;SDS011;60278;47.980;18.780;2023-12-22T10:15:58;8.02;;;2.40;;
72325;SDS011;60278;47.980;18.780;2023-12-22T10:19:01;6.07;;;2.00;;
72325;SDS011;60278;47.980;18.780;2023-12-22T10:22:03;6.90;;;2.08;;
72325;SDS011;60278;47.980;18.780;2023-12-22T10:25:05;5.73;;;2.23;;
72325;SDS011;60278;47.980;18.780;2023-12-22T10:28:11;4.63;;;2.10;;
72325;SDS011;60278;47.980;18.780;2023-12-22T10:31:15;5.80;;;2.05;;
72325;SDS011;60278;47.980;18.780;2023-12-22T10:34:17;7.97;;;2.03;;
72325;SDS011;60278;47.980;18.780;2023-12-22T10:37:20;8.52;;;2.10;;
72325;SDS011;60278;47.980;18.780;2023-12-22T10:40:23;5.10;;;1.73;;
72325;SDS011;60278;47.980;18.780;2023-12-22T10:43:26;4.73;;;1.93;;
72325;SDS011;60278;47.980;18.780;2023-12-22T10:46:28;3.65;;;1.95;;
72325;SDS011;60278;47.980;18.780;2023-12-22T10:49:32;7.68;;;2.08;;
72325;SDS011;60278;47.980;18.780;2023-12-22T10:52:36;5.78;;;2.33;;
72325;SDS011;60278;47.980;18.780;2023-12-22T10:55:38;4.73;;;1.90;;
72325;SDS011;60278;47.980;18.780;2023-12-22T10:58:41;5.57;;;1.90;;
72325;SDS011;60278;47.980;18.780;2023-12-22T11:01:44;4.75;;;2.00;;
72325;SDS011;60278;47.980;18.780;2023-12-22T11:04:50;4.63;;;2.05;;
72325;SDS011;60278;47.980;18.780;2023-12-22T11:07:57;4.00;;;1.70;;
72325;SDS011;60278;47.980;18.780;2023-12-22T11:11:08;6.23;;;1.77;;
72325;SDS011;60278;47.980;18.780;2023-12-22T11:14:12;4.27;;;1.87;;
72325;SDS011;60278;47.980;18.780;2023-12-22T11:17:14;4.45;;;1.70;;
72325;SDS011;60278;47.980;18.780;2023-12-22T11:20:17;3.10;;;1.48;;
72325;SDS011;60278;47.980;18.780;2023-12-22T11:23:19;3.40;;;1.67;;
72325;SDS011;60278;47.980;18.780;2023-12-22T11:26:22;3.53;;;1.80;;
72325;SDS011;60278;47.980;18.780;2023-12-22T11:29:25;3.17;;;1.70;;
72325;SDS011;60278;47.980;18.780;2023-12-22T11:32:28;5.55;;;3.00;;
72325;SDS011;60278;47.980;18.780;2023-12-22T11:35:31;4.18;;;1.95;;
72325;SDS011;60278;47.980;18.780;2023-12-22T11:38:35;3.53;;;1.50;;
72325;SDS011;60278;47.980;18.780;2023-12-22T11:41:37;3.93;;;1.57;;
72325;SDS011;60278;47.980;18.780;2023-12-22T11:44:41;2.43;;;1.57;;
72325;SDS011;60278;47.980;18.780;2023-12-22T11:47:43;3.00;;;1.50;;
72325;SDS011;60278;47.980;18.780;2023-12-22T11:50:46;3.80;;;1.60;;
72325;SDS011;60278;47.980;18.780;2023-12-22T11:53:48;3.75;;;1.70;;
72325;SDS011;60278;47.980;18.780;2023-12-22T11:56:50;6.87;;;2.43;;
72325;SDS011;60278;47.980;18.780;2023-12-22T11:59:52;4.93;;;1.87;;
72325;SDS011;60278;47.980;18.780;2023-12-22T12:02:54;4.63;;;1.98;;
72325;SDS011;60278;47.980;18.780;2023-12-22T12:09:20;4.57;;;1.65;;
72325;SDS011;60278;47.980;18.780;2023-12-22T12:12:42;2.97;;;1.50;;
72325;SDS011;60278;47.980;18.780;2023-12-22T12:15:44;5.60;;;1.77;;
72325;SDS011;60278;47.980;18.780;2023-12-22T12:18:47;5.50;;;1.60;;
72325;SDS011;60278;47.980;18.780;2023-12-22T12:21:49;4.35;;;1.58;;
72325;SDS011;60278;47.980;18.780;2023-12-22T12:24:51;3.60;;;1.55;;
72325;SDS011;60278;47.980;18.780;2023-12-22T12:31:05;2.17;;;1.30;;
72325;SDS011;60278;47.980;18.780;2023-12-22T12:34:09;4.22;;;1.50;;
72325;SDS011;60278;47.980;18.780;2023-12-22T12:37:12;2.78;;;1.40;;
72325;SDS011;60278;47.980;18.780;2023-12-22T12:40:15;2.63;;;1.23;;
72325;SDS011;60278;47.980;18.780;2023-12-22T12:43:19;3.90;;;1.60;;
72325;SDS011;60278;47.980;18.780;2023-12-22T12:46:21;4.27;;;1.47;;
72325;SDS011;60278;47.980;18.780;2023-12-22T12:49:23;3.45;;;1.55;;
72325;SDS011;60278;47.980;18.780;2023-12-22T12:52:29;3.17;;;1.58;;
72325;SDS011;60278;47.980;18.780;2023-12-22T12:55:32;3.97;;;1.60;;
72325;SDS011;60278;47.980;18.780;2023-12-22T12:58:34;3.83;;;1.50;;
72325;SDS011;60278;47.980;18.780;2023-12-22T13:01:44;4.67;;;1.67;;
72325;SDS011;60278;47.980;18.780;2023-12-22T13:04:46;5.15;;;1.65;;
72325;SDS011;60278;47.980;18.780;2023-12-22T13:07:48;3.08;;;1.58;;
72325;SDS011;60278;47.980;18.780;2023-12-22T13:10:59;6.78;;;1.60;;
72325;SDS011;60278;47.980;18.780;2023-12-22T13:14:01;3.50;;;1.70;;
72325;SDS011;60278;47.980;18.780;2023-12-22T13:17:04;4.53;;;1.97;;
72325;SDS011;60278;47.980;18.780;2023-12-22T13:20:06;5.10;;;2.60;;
72325;SDS011;60278;47.980;18.780;2023-12-22T13:23:09;4.88;;;1.70;;
72325;SDS011;60278;47.980;18.780;2023-12-22T13:26:18;4.97;;;1.80;;
72325;SDS011;60278;47.980;18.780;2023-12-22T13:29:20;5.33;;;2.20;;
72325;SDS011;60278;47.980;18.780;2023-12-22T13:32:22;3.77;;;2.10;;
72325;SDS011;60278;47.980;18.780;2023-12-22T13:35:28;4.90;;;2.10;;
72325;SDS011;60278;47.980;18.780;2023-12-22T13:38:30;8.25;;;2.58;;
72325;SDS011;60278;47.980;18.780;2023-12-22T13:41:33;5.55;;;2.38;;
72325;SDS011;60278;47.980;18.780;2023-12-22T13:44:42;3.60;;;1.90;;
72325;SDS011;60278;47.980;18.780;2023-12-22T13:47:44;9.60;;;2.70;;
72325;SDS011;60278;47.980;18.780;2023-12-22T13:51:00;4.60;;;2.40;;
72325;SDS011;60278;47.980;18.780;2023-12-22T13:54:02;3.88;;;1.90;;
72325;SDS011;60278;47.980;18.780;2023-12-22T13:57:04;3.50;;;1.80;;
72325;SDS011;60278;47.980;18.780;2023-12-22T14:00:28;5.70;;;2.23;;
72325;SDS011;60278;47.980;18.780;2023-12-22T14:03:30;3.50;;;1.83;;
72325;SDS011;60278;47.980;18.780;2023-12-22T14:06:35;5.60;;;2.15;;
72325;SDS011;60278;47.980;18.780;2023-12-22T14:09:39;3.72;;;1.63;;
72325;SDS011;60278;47.980;18.780;2023-12-22T14:12:41;3.38;;;1.85;;
72325;SDS011;60278;47.980;18.780;2023-12-22T14:15:43;4.53;;;2.20;;
72325;SDS011;60278;47.980;18.780;2023-12-22T14:18:46;3.57;;;1.90;;
72325;SDS011;60278;47.980;18.780;2023-12-22T14:21:50;4.90;;;2.00;;
72325;SDS011;60278;47.980;18.780;2023-12-22T14:24:53;5.30;;;1.98;;
72325;SDS011;60278;47.980;18.780;2023-12-22T14:27:55;3.65;;;1.77;;
72325;SDS011;60278;47.980;18.780;2023-12-22T14:30:59;3.10;;;1.50;;
72325;SDS011;60278;47.980;18.780;2023-12-22T14:34:01;3.67;;;1.70;;
72325;SDS011;60278;47.980;18.780;2023-12-22T14:37:03;5.03;;;1.60;;
72325;SDS011;60278;47.980;18.780;2023-12-22T14:40:05;2.60;;;1.30;;
72325;SDS011;60278;47.980;18.780;2023-12-22T14:43:07;2.60;;;1.45;;
72325;SDS011;60278;47.980;18.780;2023-12-22T14:46:09;3.87;;;1.70;;
72325;SDS011;60278;47.980;18.780;2023-12-22T14:49:11;2.80;;;1.60;;
72325;SDS011;60278;47.980;18.780;2023-12-22T14:52:14;3.08;;;1.77;;
72325;SDS011;60278;47.980;18.780;2023-12-22T14:55:16;2.33;;;1.60;;
72325;SDS011;60278;47.980;18.780;2023-12-22T14:58:19;3.20;;;1.95;;
72325;SDS011;60278;47.980;18.780;2023-12-22T15:01:21;3.00;;;1.93;;
72325;SDS011;60278;47.980;18.780;2023-12-22T15:04:23;4.37;;;1.40;;
72325;SDS011;60278;47.980;18.780;2023-12-22T15:07:26;3.10;;;1.65;;
72325;SDS011;60278;47.980;18.780;2023-12-22T15:10:28;3.35;;;1.80;;
72325;SDS011;60278;47.980;18.780;2023-12-22T15:13:31;2.83;;;1.30;;
72325;SDS011;60278;47.980;18.780;2023-12-22T15:16:33;4.73;;;1.80;;
72325;SDS011;60278;47.980;18.780;2023-12-22T15:19:35;4.23;;;1.73;;
72325;SDS011;60278;47.980;18.780;2023-12-22T15:22:41;3.28;;;1.50;;
72325;SDS011;60278;47.980;18.780;2023-12-22T15:25:43;3.08;;;1.40;;
72325;SDS011;60278;47.980;18.780;2023-12-22T15:28:45;6.10;;;1.50;;
72325;SDS011;60278;47.980;18.780;2023-12-22T15:31:47;2.80;;;1.87;;
72325;SDS011;60278;47.980;18.780;2023-12-22T15:34:50;5.93;;;1.60;;
72325;SDS011;60278;47.980;18.780;2023-12-22T15:37:53;3.20;;;1.85;;
72325;SDS011;60278;47.980;18.780;2023-12-22T15:40:55;3.05;;;1.60;;
72325;SDS011;60278;47.980;18.780;2023-12-22T15:43:57;3.45;;;1.45;;
72325;SDS011;60278;47.980;18.780;2023-12-22T15:46:59;3.40;;;1.70;;
72325;SDS011;60278;47.980;18.780;2023-12-22T15:50:01;2.57;;;1.60;;
72325;SDS011;60278;47.980;18.780;2023-12-22T15:53:04;2.97;;;1.50;;
72325;SDS011;60278;47.980;18.780;2023-12-22T15:56:07;2.83;;;1.60;;
72325;SDS011;60278;47.980;18.780;2023-12-22T15:59:10;3.53;;;1.95;;
72325;SDS011;60278;47.980;18.780;2023-12-22T16:02:13;3.43;;;1.67;;
72325;SDS011;60278;47.980;18.780;2023-12-22T16:05:15;5.37;;;1.53;;
72325;SDS011;60278;47.980;18.780;2023-12-22T16:08:17;2.50;;;1.42;;
72325;SDS011;60278;47.980;18.780;2023-12-22T16:11:19;2.55;;;1.50;;
72325;SDS011;60278;47.980;18.780;2023-12-22T16:14:22;3.53;;;2.30;;
72325;SDS011;60278;47.980;18.780;2023-12-22T16:17:24;3.70;;;1.87;;
72325;SDS011;60278;47.980;18.780;2023-12-22T16:20:26;5.10;;;1.73;;
72325;SDS011;60278;47.980;18.780;2023-12-22T16:23:29;4.13;;;1.60;;
72325;SDS011;60278;47.980;18.780;2023-12-22T16:26:31;3.85;;;1.90;;
72325;SDS011;60278;47.980;18.780;2023-12-22T16:29:37;4.07;;;1.58;;
72325;SDS011;60278;47.980;18.780;2023-12-22T16:32:39;5.03;;;1.50;;
72325;SDS011;60278;47.980;18.780;2023-12-22T16:35:42;4.20;;;1.60;;
72325;SDS011;60278;47.980;18.780;2023-12-22T16:38:44;3.53;;;1.30;;
72325;SDS011;60278;47.980;18.780;2023-12-22T16:41:46;6.00;;;1.85;;
72325;SDS011;60278;47.980;18.780;2023-12-22T16:44:49;3.03;;;1.55;;
72325;SDS011;60278;47.980;18.780;2023-12-22T16:47:51;8.03;;;1.67;;
72325;SDS011;60278;47.980;18.780;2023-12-22T16:50:53;2.90;;;1.50;;
72325;SDS011;60278;47.980;18.780;2023-12-22T16:53:59;3.72;;;1.40;;
72325;SDS011;60278;47.980;18.780;2023-12-22T16:57:04;5.40;;;1.70;;
72325;SDS011;60278;47.980;18.780;2023-12-22T17:00:06;9.13;;;2.30;;
72325;SDS011;60278;47.980;18.780;2023-12-22T17:03:11;6.07;;;2.87;;
72325;SDS011;60278;47.980;18.780;2023-12-22T17:06:14;6.13;;;2.50;;
72325;SDS011;60278;47.980;18.780;2023-12-22T17:09:16;8.23;;;2.65;;
72325;SDS011;60278;47.980;18.780;2023-12-22T17:12:19;4.13;;;1.92;;
72325;SDS011;60278;47.980;18.780;2023-12-22T17:15:21;2.60;;;1.40;;
72325;SDS011;60278;47.980;18.780;2023-12-22T17:18:23;5.07;;;1.57;;
72325;SDS011;60278;47.980;18.780;2023-12-22T17:21:25;3.03;;;1.60;;
72325;SDS011;60278;47.980;18.780;2023-12-22T17:24:27;3.92;;;1.90;;
72325;SDS011;60278;47.980;18.780;2023-12-22T17:27:30;7.50;;;2.95;;
72325;SDS011;60278;47.980;18.780;2023-12-22T17:30:32;5.55;;;1.80;;
72325;SDS011;60278;47.980;18.780;2023-12-22T17:33:34;6.37;;;3.20;;
72325;SDS011;60278;47.980;18.780;2023-12-22T17:36:36;7.17;;;3.50;;
72325;SDS011;60278;47.980;18.780;2023-12-22T17:39:38;7.10;;;2.88;;
72325;SDS011;60278;47.980;18.780;2023-12-22T17:42:40;22.92;;;11.45;;
72325;SDS011;60278;47.980;18.780;2023-12-22T17:45:43;4.32;;;2.33;;
72325;SDS011;60278;47.980;18.780;2023-12-22T17:48:45;3.73;;;1.93;;
72325;SDS011;60278;47.980;18.780;2023-12-22T17:51:47;3.77;;;2.10;;
72325;SDS011;60278;47.980;18.780;2023-12-22T17:54:49;3.22;;;1.80;;
72325;SDS011;60278;47.980;18.780;2023-12-22T17:57:51;3.85;;;2.00;;
72325;SDS011;60278;47.980;18.780;2023-12-22T18:00:54;5.40;;;2.20;;
72325;SDS011;60278;47.980;18.780;2023-12-22T18:03:56;5.40;;;2.03;;
72325;SDS011;60278;47.980;18.780;2023-12-22T18:06:58;4.27;;;2.03;;
72325;SDS011;60278;47.980;18.780;2023-12-22T18:10:00;4.15;;;2.10;;
72325;SDS011;60278;47.980;18.780;2023-12-22T18:13:02;4.35;;;2.20;;
72325;SDS011;60278;47.980;18.780;2023-12-22T18:16:05;5.68;;;2.10;;